createdAt,value
2023-03-18T00:01:11.912Z,13.00
2023-03-18T00:03:40.300Z,13.00
2023-03-18T00:06:10.449Z,13.00
2023-03-18T00:08:39.353Z,13.00
2023-03-18T00:11:08.045Z,13.00
2023-03-18T00:13:37.949Z,13.00
2023-03-18T00:16:07.676Z,13.00
2023-03-18T00:18:36.270Z,13.00
2023-03-18T00:21:04.873Z,12.90
2023-03-18T00:23:34.596Z,12.90
2023-03-18T00:26:03.858Z,12.90
2023-03-18T00:28:32.611Z,12.80
2023-03-18T00:31:08.598Z,12.90
2023-03-18T00:33:38.246Z,12.80
2023-03-18T00:36:10.005Z,12.80
2023-03-18T00:38:38.307Z,12.80
2023-03-18T00:41:11.790Z,12.80
2023-03-18T00:43:47.221Z,12.80
2023-03-18T00:46:18.872Z,12.80
2023-03-18T00:48:47.508Z,12.80
2023-03-18T00:51:17.328Z,12.80
2023-03-18T00:53:47.399Z,12.90
2023-03-18T00:56:16.442Z,12.90
2023-03-18T00:58:45.227Z,12.90
2023-03-18T01:01:13.839Z,12.80
2023-03-18T01:03:44.201Z,12.90
2023-03-18T01:06:13.890Z,12.90
2023-03-18T01:08:42.912Z,12.90
2023-03-18T01:11:12.178Z,12.90
2023-03-18T01:13:40.485Z,12.80
2023-03-18T01:16:09.457Z,12.80
2023-03-18T01:18:38.940Z,12.80
2023-03-18T01:21:09.103Z,12.80
2023-03-18T01:23:42.300Z,12.80
2023-03-18T01:26:11.329Z,12.90
2023-03-18T01:28:42.957Z,12.90
2023-03-18T01:31:12.579Z,12.90
2023-03-18T01:33:42.603Z,12.90
2023-03-18T01:36:12.962Z,12.90
2023-03-18T01:38:42.439Z,12.90
2023-03-18T01:41:13.431Z,12.90
2023-03-18T01:43:44.140Z,13.00
2023-03-18T01:46:37.920Z,13.00
2023-03-18T01:49:12.604Z,13.00
2023-03-18T01:51:44.199Z,13.00
2023-03-18T01:54:14.023Z,12.90
2023-03-18T01:56:43.998Z,13.00
2023-03-18T01:59:13.640Z,13.00
2023-03-18T02:01:46.639Z,13.00
2023-03-18T02:04:18.179Z,13.00
2023-03-18T02:06:47.521Z,13.00
2023-03-18T02:09:16.161Z,13.00
2023-03-18T02:11:50.026Z,13.10
2023-03-18T02:14:23.564Z,13.10
2023-03-18T02:16:56.529Z,13.10
2023-03-18T02:19:49.129Z,13.10
2023-03-18T02:22:27.018Z,13.00
2023-03-18T02:25:11.083Z,13.00
2023-03-18T02:27:42.781Z,13.10
2023-03-18T02:30:15.012Z,13.20
2023-03-18T02:32:48.374Z,13.10
2023-03-18T02:35:16.647Z,13.10
2023-03-18T02:37:45.158Z,13.20
2023-03-18T02:40:20.428Z,13.20
2023-03-18T02:42:50.450Z,13.20
2023-03-18T02:45:31.644Z,13.20
2023-03-18T02:48:23.868Z,13.10
2023-03-18T02:50:52.087Z,13.20
2023-03-18T02:53:20.253Z,13.10
2023-03-18T02:55:48.522Z,13.10
2023-03-18T02:58:17.903Z,13.10
2023-03-18T03:00:47.539Z,13.10
2023-03-18T03:03:16.493Z,13.10
2023-03-18T03:05:44.612Z,13.10
2023-03-18T03:08:12.680Z,13.10
2023-03-18T03:10:44.374Z,13.00
2023-03-18T03:13:12.621Z,13.00
2023-03-18T03:15:42.826Z,12.90
2023-03-18T03:18:11.575Z,12.90
2023-03-18T03:20:39.836Z,12.80
2023-03-18T03:23:10.038Z,12.80
2023-03-18T03:25:38.353Z,12.80
2023-03-18T03:28:08.378Z,12.80
2023-03-18T03:30:37.201Z,12.80
2023-03-18T03:33:07.528Z,12.70
2023-03-18T03:35:35.827Z,12.60
2023-03-18T03:38:04.329Z,12.60
2023-03-18T03:40:32.925Z,12.60
2023-03-18T03:43:01.099Z,12.50
2023-03-18T03:45:29.527Z,12.50
2023-03-18T03:47:57.659Z,12.40
2023-03-18T03:50:27.426Z,12.30
2023-03-18T03:52:55.478Z,12.40
2023-03-18T03:55:24.258Z,12.40
2023-03-18T03:57:54.555Z,12.40
2023-03-18T04:00:24.457Z,12.40
2023-03-18T04:02:54.160Z,12.40
2023-03-18T04:05:26.077Z,12.40
2023-03-18T04:07:55.360Z,12.40
2023-03-18T04:10:36.546Z,12.40
2023-03-18T04:13:06.461Z,12.40
2023-03-18T04:15:34.983Z,12.30
2023-03-18T04:18:10.340Z,12.20
2023-03-18T04:20:40.837Z,12.20
2023-03-18T04:23:17.809Z,12.20
2023-03-18T04:25:47.265Z,12.20
2023-03-18T04:28:16.953Z,12.20
2023-03-18T04:30:45.045Z,12.20
2023-03-18T04:33:17.885Z,12.30
2023-03-18T04:35:49.285Z,12.30
2023-03-18T04:38:19.394Z,12.30
2023-03-18T04:40:50.353Z,12.30
2023-03-18T04:43:18.843Z,12.20
2023-03-18T04:45:49.123Z,12.30
2023-03-18T04:48:18.199Z,12.30
2023-03-18T04:50:48.367Z,12.40
2023-03-18T04:53:21.893Z,12.40
2023-03-18T04:55:50.666Z,12.40
2023-03-18T04:58:19.636Z,12.40
2023-03-18T05:00:59.975Z,12.40
2023-03-18T05:03:35.333Z,12.50
2023-03-18T05:06:06.136Z,12.50
2023-03-18T05:08:44.672Z,12.50
2023-03-18T05:11:12.982Z,12.50
2023-03-18T05:13:42.003Z,12.50
2023-03-18T05:16:11.624Z,12.50
2023-03-18T05:18:41.156Z,12.40
2023-03-18T05:21:11.116Z,12.40
2023-03-18T05:23:40.182Z,12.40
2023-03-18T05:26:11.621Z,12.30
2023-03-18T05:28:41.638Z,12.30
2023-03-18T05:31:21.892Z,12.30
2023-03-18T05:33:50.024Z,12.20
2023-03-18T05:36:20.208Z,12.20
2023-03-18T05:38:57.868Z,12.20
2023-03-18T05:41:27.431Z,12.20
2023-03-18T05:43:55.628Z,12.30
2023-03-18T05:46:23.889Z,12.30
2023-03-18T05:49:04.208Z,12.30
2023-03-18T05:51:44.702Z,12.30
2023-03-18T05:54:18.121Z,12.30
2023-03-18T05:56:46.809Z,12.30
2023-03-18T05:59:16.160Z,12.30
2023-03-18T06:01:50.027Z,12.30
2023-03-18T06:04:19.168Z,12.40
2023-03-18T06:06:49.637Z,12.40
2023-03-18T06:09:18.006Z,12.40
2023-03-18T06:11:47.375Z,12.40
2023-03-18T06:14:16.104Z,12.40
2023-03-18T06:16:45.418Z,12.40
2023-03-18T06:19:14.498Z,12.40
2023-03-18T06:21:42.789Z,12.40
2023-03-18T06:24:13.256Z,12.40
2023-03-18T06:26:41.584Z,12.50
2023-03-18T06:29:10.772Z,12.50
2023-03-18T06:31:39.762Z,12.50
2023-03-18T06:34:10.173Z,12.50
2023-03-18T06:36:40.062Z,12.50
2023-03-18T06:39:14.563Z,12.50
2023-03-18T06:41:44.784Z,12.60
2023-03-18T06:44:33.118Z,12.60
2023-03-18T06:47:10.316Z,12.70
2023-03-18T06:49:42.501Z,12.70
2023-03-18T06:52:17.211Z,12.60
2023-03-18T06:54:48.252Z,12.70
2023-03-18T06:57:18.376Z,12.80
2023-03-18T06:59:46.866Z,12.90
2023-03-18T07:02:15.436Z,13.00
2023-03-18T07:04:43.940Z,13.00
2023-03-18T07:07:12.945Z,12.90
2023-03-18T07:09:43.645Z,12.90
2023-03-18T07:12:16.564Z,13.00
2023-03-18T07:14:45.129Z,13.00
2023-03-18T07:17:14.517Z,13.10
2023-03-18T07:19:47.181Z,13.10
2023-03-18T07:22:17.262Z,13.10
2023-03-18T07:24:45.452Z,13.10
2023-03-18T07:27:16.690Z,13.20
2023-03-18T07:29:44.699Z,13.30
2023-03-18T07:32:12.855Z,13.40
2023-03-18T07:34:41.083Z,13.40
2023-03-18T07:37:10.080Z,13.40
2023-03-18T07:39:38.806Z,13.40
2023-03-18T07:42:09.377Z,13.40
2023-03-18T07:44:39.235Z,13.40
2023-03-18T07:47:07.569Z,13.50
2023-03-18T07:49:35.553Z,13.50
2023-03-18T07:52:03.886Z,13.50
2023-03-18T07:54:31.977Z,13.60
2023-03-18T07:57:00.124Z,13.70
2023-03-18T07:59:28.261Z,13.70
2023-03-18T08:01:58.218Z,13.80
2023-03-18T08:04:26.322Z,13.90
2023-03-18T08:06:55.251Z,14.00
2023-03-18T08:09:23.401Z,14.00
2023-03-18T08:11:51.578Z,14.00
2023-03-18T08:14:19.655Z,14.00
2023-03-18T08:16:47.820Z,13.90
2023-03-18T08:19:17.343Z,13.90
2023-03-18T08:21:45.481Z,13.80
2023-03-18T08:24:13.460Z,13.90
2023-03-18T08:26:41.888Z,14.00
2023-03-18T08:29:09.954Z,14.10
2023-03-18T08:31:38.750Z,14.10
2023-03-18T08:34:06.935Z,14.10
2023-03-18T08:36:36.289Z,14.20
2023-03-18T08:39:05.380Z,14.30
2023-03-18T08:41:34.524Z,14.30
2023-03-18T08:44:03.107Z,14.30
2023-03-18T08:46:31.083Z,14.30
2023-03-18T08:48:59.720Z,14.40
2023-03-18T08:51:29.155Z,14.40
2023-03-18T08:53:58.578Z,14.40
2023-03-18T08:56:27.203Z,14.40
2023-03-18T08:58:55.573Z,14.40
2023-03-18T09:01:24.181Z,14.50
2023-03-18T09:03:52.866Z,14.60
2023-03-18T09:06:20.989Z,14.80
2023-03-18T09:08:49.159Z,14.70
2023-03-18T09:11:18.810Z,14.80
2023-03-18T09:13:47.087Z,14.90
2023-03-18T09:16:15.150Z,15.00
2023-03-18T09:18:45.582Z,14.80
2023-03-18T09:21:14.528Z,14.70
2023-03-18T09:23:43.155Z,14.60
2023-03-18T09:26:11.374Z,14.70
2023-03-18T09:28:40.802Z,14.60
2023-03-18T09:31:08.934Z,14.70
2023-03-18T09:33:37.808Z,14.80
2023-03-18T09:36:06.435Z,14.90
2023-03-18T09:38:34.474Z,15.00
2023-03-18T09:41:17.487Z,15.00
2023-03-18T09:43:57.213Z,15.00
2023-03-18T09:46:33.135Z,15.00
2023-03-18T09:49:20.972Z,15.10
2023-03-18T09:51:58.567Z,15.10
2023-03-18T09:54:34.721Z,15.20
2023-03-18T09:57:04.413Z,15.20
2023-03-18T09:59:39.456Z,15.00
2023-03-18T10:02:19.365Z,15.10
2023-03-18T10:04:53.475Z,15.10
2023-03-18T10:07:27.247Z,15.10
2023-03-18T10:09:59.704Z,15.20
2023-03-18T10:12:33.051Z,15.20
2023-03-18T10:15:14.253Z,15.10
2023-03-18T10:17:45.526Z,15.20
2023-03-18T10:20:33.390Z,15.20
2023-03-18T10:23:12.700Z,15.20
2023-03-18T10:25:46.916Z,15.10
2023-03-18T10:28:50.292Z,14.90
2023-03-18T10:31:33.412Z,14.90
2023-03-18T10:34:04.540Z,14.90
2023-03-18T10:36:43.700Z,15.00
2023-03-18T10:39:16.364Z,15.10
2023-03-18T10:41:45.830Z,15.20
2023-03-18T10:44:21.064Z,15.20
2023-03-18T10:46:57.853Z,15.30
2023-03-18T10:49:31.332Z,15.30
2023-03-18T10:52:05.901Z,15.40
2023-03-18T10:54:38.291Z,15.40
2023-03-18T10:57:06.629Z,15.40
2023-03-18T10:59:35.374Z,15.50
2023-03-18T11:02:11.768Z,15.40
2023-03-18T11:04:47.523Z,15.50
2023-03-18T11:07:19.736Z,15.40
2023-03-18T11:09:48.022Z,15.50
2023-03-18T11:12:19.321Z,15.60
2023-03-18T11:14:49.260Z,15.60
2023-03-18T11:17:24.017Z,15.70
2023-03-18T11:20:05.054Z,15.60
2023-03-18T11:22:33.673Z,15.50
2023-03-18T11:25:06.091Z,15.40
2023-03-18T11:27:40.677Z,15.40
2023-03-18T11:30:33.659Z,15.50
2023-03-18T11:33:08.090Z,15.60
2023-03-18T11:35:41.827Z,15.60
2023-03-18T11:38:16.549Z,15.50
2023-03-18T11:40:44.784Z,15.50
2023-03-18T11:43:20.989Z,15.60
2023-03-18T11:45:53.947Z,15.60
2023-03-18T11:48:35.610Z,15.70
2023-03-18T11:51:27.432Z,15.90
2023-03-18T11:54:09.507Z,16.10
2023-03-18T11:56:43.544Z,16.20
2023-03-18T11:59:33.576Z,16.20
2023-03-18T12:02:24.212Z,16.20
2023-03-18T12:05:18.218Z,16.10
2023-03-18T12:07:57.097Z,16.10
2023-03-18T12:10:28.222Z,16.10
2023-03-18T12:13:07.454Z,16.00
2023-03-18T12:15:47.364Z,16.20
2023-03-18T12:18:30.153Z,16.30
2023-03-18T12:21:03.675Z,16.50
2023-03-18T12:23:59.866Z,16.60
2023-03-18T12:26:36.153Z,16.60
2023-03-18T12:29:33.905Z,16.70
2023-03-18T12:32:14.377Z,16.80
2023-03-18T12:35:03.733Z,16.90
2023-03-18T12:37:42.888Z,17.10
2023-03-18T12:40:37.250Z,16.80
2023-03-18T12:43:27.378Z,16.70
2023-03-18T12:46:01.034Z,16.70
2023-03-18T12:48:43.672Z,16.90
2023-03-18T12:51:16.306Z,17.10
2023-03-18T12:53:49.042Z,17.40
2023-03-18T12:56:21.478Z,17.50
2023-03-18T12:58:53.459Z,17.60
2023-03-18T13:01:25.891Z,17.80
2023-03-18T13:03:59.758Z,17.80
2023-03-18T13:06:33.092Z,17.80
2023-03-18T13:09:08.427Z,17.90
2023-03-18T13:12:03.388Z,18.00
2023-03-18T13:14:47.168Z,18.10
2023-03-18T13:17:18.580Z,18.20
2023-03-18T13:19:47.332Z,18.30
2023-03-18T13:22:43.177Z,18.40
2023-03-18T13:25:21.795Z,18.40
2023-03-18T13:28:05.196Z,18.40
2023-03-18T13:30:50.322Z,18.40
2023-03-18T13:33:36.493Z,18.40
2023-03-18T13:36:34.589Z,18.10
2023-03-18T13:39:14.994Z,18.00
2023-03-18T13:42:06.596Z,18.10
2023-03-18T13:44:39.794Z,18.30
2023-03-18T13:47:12.677Z,18.30
2023-03-18T13:49:41.134Z,18.30
2023-03-18T13:52:24.561Z,18.40
2023-03-18T13:54:52.962Z,18.60
2023-03-18T13:57:36.851Z,18.60
2023-03-18T14:00:29.109Z,18.60
2023-03-18T14:03:17.673Z,18.50
2023-03-18T14:05:46.860Z,18.40
2023-03-18T14:08:44.948Z,18.40
2023-03-18T14:11:47.571Z,18.40
2023-03-18T14:14:56.906Z,18.40
2023-03-18T14:17:34.724Z,18.40
2023-03-18T14:20:23.753Z,18.40
2023-03-18T14:22:53.826Z,18.40
2023-03-18T14:25:38.824Z,18.30
2023-03-18T14:28:26.638Z,18.20
2023-03-18T14:31:34.226Z,18.20
2023-03-18T14:34:24.752Z,18.00
2023-03-18T14:37:35.633Z,17.60
2023-03-18T14:40:08.806Z,17.40
2023-03-18T14:42:53.776Z,17.50
2023-03-18T14:45:27.309Z,17.50
2023-03-18T14:47:59.571Z,17.40
2023-03-18T14:50:36.285Z,17.20
2023-03-18T14:53:10.915Z,17.20
2023-03-18T14:55:40.165Z,17.10
2023-03-18T14:58:12.795Z,17.10
2023-03-18T15:00:40.842Z,17.10
2023-03-18T15:03:16.819Z,17.00
2023-03-18T15:05:46.447Z,16.90
2023-03-18T15:08:19.680Z,16.90
2023-03-18T15:10:50.349Z,17.00
2023-03-18T15:13:20.886Z,16.90
2023-03-18T15:15:49.699Z,17.00
2023-03-18T15:18:26.422Z,17.10
2023-03-18T15:20:59.670Z,17.30
2023-03-18T15:23:31.948Z,17.50
2023-03-18T15:26:00.272Z,17.70
2023-03-18T15:28:30.084Z,17.60
2023-03-18T15:31:00.271Z,17.60
2023-03-18T15:33:36.133Z,17.70
2023-03-18T15:36:07.268Z,17.70
2023-03-18T15:38:35.304Z,17.80
2023-03-18T15:41:05.503Z,17.90
2023-03-18T15:43:40.168Z,18.10
2023-03-18T15:46:16.310Z,18.10
2023-03-18T15:48:54.056Z,18.10
2023-03-18T15:51:28.301Z,18.10
2023-03-18T15:53:58.184Z,18.10
2023-03-18T15:56:30.197Z,18.20
2023-03-18T15:59:00.663Z,18.00
2023-03-18T16:01:28.709Z,17.80
2023-03-18T16:03:58.150Z,17.80
2023-03-18T16:06:26.877Z,17.80
2023-03-18T16:08:54.846Z,17.80
2023-03-18T16:11:24.834Z,17.80
2023-03-18T16:13:53.916Z,17.80
2023-03-18T16:16:27.910Z,17.70
2023-03-18T16:18:59.323Z,17.80
2023-03-18T16:21:28.011Z,17.80
2023-03-18T16:23:56.091Z,17.80
2023-03-18T16:26:24.161Z,17.80
2023-03-18T16:28:52.902Z,17.80
2023-03-18T16:31:20.935Z,17.80
2023-03-18T16:33:52.690Z,17.80
2023-03-18T16:36:34.958Z,17.80
2023-03-18T16:39:13.214Z,17.80
2023-03-18T16:41:41.449Z,17.80
2023-03-18T16:44:13.942Z,17.80
2023-03-18T16:46:44.042Z,17.80
2023-03-18T16:49:22.314Z,17.70
2023-03-18T16:51:52.130Z,18.00
2023-03-18T16:54:22.382Z,18.30
2023-03-18T16:56:52.366Z,18.90
2023-03-18T16:59:20.738Z,19.40
2023-03-18T17:01:48.788Z,19.40
2023-03-18T17:04:25.816Z,18.90
2023-03-18T17:06:55.629Z,18.70
2023-03-18T17:09:24.922Z,18.50
2023-03-18T17:11:55.111Z,18.30
2023-03-18T17:14:30.557Z,18.20
2023-03-18T17:17:00.412Z,18.00
2023-03-18T17:19:29.347Z,17.90
2023-03-18T17:22:09.432Z,17.70
2023-03-18T17:24:37.847Z,17.60
2023-03-18T17:27:06.092Z,17.40
2023-03-18T17:29:34.230Z,17.40
2023-03-18T17:32:02.625Z,17.30
2023-03-18T17:34:30.681Z,17.20
2023-03-18T17:36:59.999Z,17.10
2023-03-18T17:39:28.072Z,17.00
2023-03-18T17:41:56.202Z,16.90
2023-03-18T17:44:29.628Z,16.80
2023-03-18T17:46:58.064Z,16.80
2023-03-18T17:49:27.329Z,16.70
2023-03-18T17:51:56.655Z,16.70
2023-03-18T17:54:27.188Z,16.70
2023-03-18T17:56:56.039Z,16.60
2023-03-18T17:59:24.195Z,16.60
2023-03-18T18:01:52.621Z,16.60
2023-03-18T18:04:23.032Z,16.60
2023-03-18T18:06:51.158Z,16.50
2023-03-18T18:09:19.481Z,16.50
2023-03-18T18:11:50.738Z,16.50
2023-03-18T18:14:21.520Z,16.40
2023-03-18T18:16:50.070Z,16.40
2023-03-18T18:19:19.350Z,16.40
2023-03-18T18:21:49.563Z,16.30
2023-03-18T18:24:23.491Z,16.30
2023-03-18T18:26:53.444Z,16.30
2023-03-18T18:29:22.983Z,16.30
2023-03-18T18:31:51.511Z,16.20
2023-03-18T18:34:20.098Z,16.20
2023-03-18T18:36:49.560Z,16.20
2023-03-18T18:39:18.024Z,16.10
2023-03-18T18:41:46.544Z,16.10
2023-03-18T18:44:16.122Z,16.10
2023-03-18T18:46:44.132Z,16.00
2023-03-18T18:49:21.975Z,16.00
2023-03-18T18:51:50.579Z,16.00
2023-03-18T18:54:19.574Z,16.00
2023-03-18T18:56:47.751Z,15.90
2023-03-18T18:59:23.400Z,15.90
2023-03-18T19:01:52.065Z,15.90
2023-03-18T19:04:21.664Z,15.80
2023-03-18T19:06:50.815Z,15.80
2023-03-18T19:09:20.832Z,15.80
2023-03-18T19:11:50.059Z,15.70
2023-03-18T19:14:21.857Z,15.70
2023-03-18T19:16:50.425Z,15.70
2023-03-18T19:19:20.649Z,15.60
2023-03-18T19:21:49.613Z,15.60
2023-03-18T19:24:28.781Z,15.60
2023-03-18T19:26:58.777Z,15.60
2023-03-18T19:29:28.769Z,15.50
2023-03-18T19:31:57.130Z,15.50
2023-03-18T19:34:26.837Z,15.40
2023-03-18T19:36:56.957Z,15.40
2023-03-18T19:39:27.651Z,15.30
2023-03-18T19:41:55.678Z,15.30
2023-03-18T19:44:26.053Z,15.30
2023-03-18T19:46:57.008Z,15.30
2023-03-18T19:49:27.124Z,15.20
2023-03-18T19:51:56.389Z,15.20
2023-03-18T19:54:28.267Z,15.20
2023-03-18T19:57:00.276Z,15.10
2023-03-18T19:59:37.576Z,15.10
2023-03-18T20:02:22.824Z,15.10
2023-03-18T20:04:51.632Z,15.10
2023-03-18T20:07:20.958Z,15.10
2023-03-18T20:09:49.685Z,15.10
2023-03-18T20:12:24.411Z,15.10
2023-03-18T20:14:53.257Z,15.10
2023-03-18T20:17:36.150Z,15.10
2023-03-18T20:20:04.711Z,15.00
2023-03-18T20:22:35.570Z,15.00
2023-03-18T20:25:05.035Z,15.00
2023-03-18T20:27:33.027Z,14.90
2023-03-18T20:30:01.477Z,14.90
2023-03-18T20:32:29.407Z,14.80
2023-03-18T20:34:58.773Z,14.80
2023-03-18T20:37:33.445Z,14.80
2023-03-18T20:40:02.527Z,14.70
2023-03-18T20:42:30.642Z,14.70
2023-03-18T20:44:58.680Z,14.70
2023-03-18T20:47:26.680Z,14.70
2023-03-18T20:49:54.972Z,14.60
2023-03-18T20:52:28.400Z,14.60
2023-03-18T20:54:57.108Z,14.60
2023-03-18T20:57:25.461Z,14.60
2023-03-18T20:59:54.335Z,14.60
2023-03-18T21:02:30.088Z,14.50
2023-03-18T21:04:58.882Z,14.60
2023-03-18T21:07:28.736Z,14.60
2023-03-18T21:09:56.726Z,14.60
2023-03-18T21:12:25.919Z,14.50
2023-03-18T21:14:53.987Z,14.50
2023-03-18T21:17:24.200Z,14.50
2023-03-18T21:19:54.134Z,14.50
2023-03-18T21:22:24.385Z,14.50
2023-03-18T21:24:54.317Z,14.50
2023-03-18T21:27:24.624Z,14.40
2023-03-18T21:29:53.401Z,14.40
2023-03-18T21:32:23.830Z,14.40
2023-03-18T21:34:52.858Z,14.40
2023-03-18T21:37:23.147Z,14.40
2023-03-18T21:39:51.559Z,14.40
2023-03-18T21:42:24.432Z,14.30
2023-03-18T21:44:52.810Z,14.30
2023-03-18T21:47:22.545Z,14.30
2023-03-18T21:49:50.754Z,14.20
2023-03-18T21:52:21.441Z,14.20
2023-03-18T21:54:49.545Z,14.20
2023-03-18T21:57:19.255Z,14.20
2023-03-18T21:59:49.068Z,14.10
2023-03-18T22:02:27.897Z,14.10
2023-03-18T22:04:57.708Z,14.10
2023-03-18T22:07:25.859Z,14.10
2023-03-18T22:09:53.909Z,14.10
2023-03-18T22:12:25.168Z,14.00
2023-03-18T22:14:55.307Z,14.00
2023-03-18T22:17:26.406Z,14.00
2023-03-18T22:19:55.969Z,13.90
2023-03-18T22:22:26.189Z,13.90
2023-03-18T22:24:54.526Z,13.90
2023-03-18T22:27:24.111Z,13.90
2023-03-18T22:29:54.956Z,13.90
2023-03-18T22:32:28.039Z,13.90
2023-03-18T22:34:56.703Z,13.90
2023-03-18T22:37:26.278Z,13.80
2023-03-18T22:39:54.802Z,13.80
2023-03-18T22:42:24.764Z,13.80
2023-03-18T22:44:54.677Z,13.80
2023-03-18T22:47:27.245Z,13.80
2023-03-18T22:49:55.292Z,13.80
2023-03-18T22:52:26.086Z,13.70
2023-03-18T22:54:56.582Z,13.60
2023-03-18T22:57:26.267Z,13.60
2023-03-18T22:59:58.184Z,13.60
2023-03-18T23:02:28.683Z,13.60
2023-03-18T23:04:57.602Z,13.50
2023-03-18T23:07:28.917Z,13.50
2023-03-18T23:09:58.765Z,13.50
2023-03-18T23:12:28.149Z,13.50
2023-03-18T23:14:57.975Z,13.50
2023-03-18T23:17:28.594Z,13.60
2023-03-18T23:19:57.109Z,13.60
2023-03-18T23:22:27.430Z,13.70
2023-03-18T23:24:55.907Z,13.70
2023-03-18T23:27:25.524Z,13.70
2023-03-18T23:29:53.793Z,13.70
2023-03-18T23:32:25.969Z,13.70
2023-03-18T23:34:54.189Z,13.60
2023-03-18T23:37:23.588Z,13.60
2023-03-18T23:39:51.642Z,13.60
2023-03-18T23:42:21.821Z,13.60
2023-03-18T23:44:49.863Z,13.60
2023-03-18T23:47:17.875Z,13.60
2023-03-18T23:49:47.203Z,13.70
2023-03-18T23:52:16.671Z,13.70
2023-03-18T23:54:44.790Z,13.70
2023-03-18T23:57:13.277Z,13.80
2023-03-18T23:59:41.888Z,13.80
